Time;durP1;ratioP1;P1;durP2;ratioP2;P2;SDS_P1;SDS_P2;PMS_P1;PMS_P2;Temp;Humidity;BMP_temperature;BMP_pressure;BME280_temperature;BME280_humidity;BME280_pressure;Samples;Min_cycle;Max_cycle;Signal;HPM_P1;HPM_P2
2021/03/01 00:00:22;;;;;;;37.50;12.63;;;5.40;99.90;;;;;;4994093;28;20109;-89
2021/03/01 00:02:48;;;;;;;26.00;12.07;;;5.40;99.90;;;;;;4976771;28;20050;-89
2021/03/01 00:05:15;;;;;;;25.55;11.88;;;5.40;99.90;;;;;;4975604;28;20133;-89
2021/03/01 00:07:43;;;;;;;26.75;12.77;;;5.40;99.90;;;;;;4990952;28;20047;-89
2021/03/01 00:10:11;;;;;;;24.02;12.23;;;5.40;99.90;;;;;;4979037;28;20030;-90
2021/03/01 00:12:38;;;;;;;24.08;11.55;;;5.40;99.90;;;;;;4993171;28;20045;-90
2021/03/01 00:15:06;;;;;;;27.70;13.32;;;5.40;99.90;;;;;;4993416;28;20597;-90
2021/03/01 00:17:36;;;;;;;29.08;13.30;;;5.40;99.90;;;;;;4992865;28;20053;-90
2021/03/01 00:20:05;;;;;;;25.52;11.98;;;5.40;99.90;;;;;;4983043;28;20046;-90
2021/03/01 00:22:34;;;;;;;32.60;14.65;;;5.30;99.90;;;;;;4993708;28;20050;-90
2021/03/01 00:25:06;;;;;;;26.40;12.88;;;5.30;99.90;;;;;;4973954;28;20061;-90
2021/03/01 00:27:32;;;;;;;31.17;13.60;;;5.30;99.90;;;;;;4993958;28;20564;-90
2021/03/01 00:29:58;;;;;;;29.75;14.88;;;5.30;99.90;;;;;;4990110;28;20081;-90
2021/03/01 00:32:25;;;;;;;27.58;13.63;;;5.20;99.90;;;;;;4977011;28;20050;-90
2021/03/01 00:34:53;;;;;;;29.17;13.52;;;5.20;99.90;;;;;;4988449;28;20100;-90
2021/03/01 00:37:19;;;;;;;33.33;14.82;;;5.20;99.90;;;;;;4997302;28;20213;-90
2021/03/01 00:39:45;;;;;;;32.08;15.43;;;5.20;99.90;;;;;;4972713;28;20125;-89
2021/03/01 00:42:11;;;;;;;33.13;15.90;;;5.20;99.90;;;;;;4977634;28;20046;-88
2021/03/01 00:44:38;;;;;;;26.80;14.07;;;5.20;99.90;;;;;;4984740;28;20053;-88
2021/03/01 00:47:04;;;;;;;26.45;14.05;;;5.20;99.90;;;;;;4967339;28;20164;-89
2021/03/01 00:49:30;;;;;;;29.77;14.00;;;5.20;99.90;;;;;;4975510;28;20054;-88
2021/03/01 00:51:57;;;;;;;27.98;13.95;;;5.10;99.90;;;;;;4972321;28;20053;-90
2021/03/01 00:54:23;;;;;;;32.03;15.18;;;5.10;99.90;;;;;;4968636;28;20050;-90
2021/03/01 00:56:50;;;;;;;33.10;15.10;;;5.00;99.90;;;;;;4974323;28;20167;-89
2021/03/01 00:59:16;;;;;;;30.48;14.88;;;5.00;99.90;;;;;;4979752;28;20137;-89
2021/03/01 01:01:44;;;;;;;34.15;15.75;;;5.00;99.90;;;;;;4977100;28;20057;-89
2021/03/01 01:04:11;;;;;;;37.00;16.15;;;4.90;99.90;;;;;;4966606;28;20057;-89
2021/03/01 01:06:40;;;;;;;41.40;17.35;;;4.80;99.90;;;;;;4972080;28;20062;-90
2021/03/01 01:09:06;;;;;;;37.10;16.35;;;4.90;99.90;;;;;;4976992;28;20046;-88
2021/03/01 01:11:35;;;;;;;42.78;17.55;;;4.80;99.90;;;;;;4975562;28;20058;-88
2021/03/01 01:14:02;;;;;;;38.50;17.02;;;4.80;99.90;;;;;;4957280;28;20042;-89
2021/03/01 01:16:28;;;;;;;42.28;18.55;;;4.70;99.90;;;;;;4970246;28;20149;-88
2021/03/01 01:18:55;;;;;;;38.17;17.13;;;4.70;99.90;;;;;;4958368;28;20058;-89
2021/03/01 01:21:21;;;;;;;43.50;19.50;;;4.70;99.90;;;;;;4967188;28;20137;-90
2021/03/01 01:23:47;;;;;;;46.25;19.15;;;4.70;99.90;;;;;;4975137;28;20510;-88
2021/03/01 01:26:16;;;;;;;45.90;19.58;;;4.70;99.90;;;;;;4967876;28;20053;-88
2021/03/01 01:28:43;;;;;;;41.88;18.65;;;4.70;99.90;;;;;;4980403;28;22870;-88
2021/03/01 01:31:09;;;;;;;45.85;20.05;;;4.80;99.90;;;;;;4966429;28;20056;-89
2021/03/01 01:33:38;;;;;;;44.88;19.02;;;4.70;99.90;;;;;;4979561;28;20433;-89
2021/03/01 01:36:08;;;;;;;42.80;16.77;;;4.70;99.90;;;;;;4966451;28;20419;-89
2021/03/01 01:38:50;;;;;;;46.72;18.50;;;4.80;99.90;;;;;;4973348;28;20066;-89
2021/03/01 01:41:17;;;;;;;38.55;17.08;;;4.80;99.90;;;;;;4978372;28;20129;-89
2021/03/01 01:43:45;;;;;;;36.88;16.60;;;4.70;99.90;;;;;;4989988;28;20071;-90
2021/03/01 01:46:12;;;;;;;40.03;18.13;;;4.70;99.90;;;;;;4973387;28;20054;-89
2021/03/01 01:48:38;;;;;;;38.60;17.90;;;4.60;99.90;;;;;;4987862;28;20084;-89
2021/03/01 01:51:05;;;;;;;45.22;18.75;;;4.60;99.90;;;;;;4969201;28;20460;-89
2021/03/01 01:53:31;;;;;;;42.92;18.58;;;4.50;99.90;;;;;;4978696;28;20133;-90
2021/03/01 01:55:59;;;;;;;42.72;17.50;;;4.40;99.90;;;;;;4974496;28;20441;-89
2021/03/01 01:58:26;;;;;;;45.20;19.05;;;4.30;99.90;;;;;;4967453;28;20043;-89
2021/03/01 02:00:53;;;;;;;48.80;19.50;;;4.20;99.90;;;;;;4983044;28;20061;-88
2021/03/01 02:03:58;;;;;;;44.78;18.63;;;4.20;99.90;;;;;;4990711;28;20058;-88
2021/03/01 02:06:35;;;;;;;46.28;19.17;;;4.10;99.90;;;;;;4985922;28;20490;-89
2021/03/01 02:09:34;;;;;;;47.28;19.23;;;4.00;99.90;;;;;;4972347;28;20043;-89
2021/03/01 02:12:22;;;;;;;50.15;19.38;;;3.90;99.90;;;;;;4968733;28;20055;-89
2021/03/01 02:15:12;;;;;;;52.85;18.92;;;3.80;99.90;;;;;;4950806;28;20055;-89
2021/03/01 02:17:38;;;;;;;44.85;18.10;;;3.80;99.90;;;;;;4967061;28;20180;-89
2021/03/01 02:20:10;;;;;;;45.53;19.02;;;3.70;99.90;;;;;;4958249;28;20154;-90
2021/03/01 02:22:39;;;;;;;45.30;18.55;;;3.60;99.90;;;;;;4960529;28;20515;-89
2021/03/01 02:25:08;;;;;;;46.47;18.30;;;3.60;99.90;;;;;;4975434;28;20063;-90
2021/03/01 02:28:11;;;;;;;51.67;18.40;;;3.60;99.90;;;;;;4949051;28;20153;-89
2021/03/01 02:30:53;;;;;;;46.08;18.27;;;3.50;99.90;;;;;;4963607;28;20074;-89
2021/03/01 02:33:31;;;;;;;43.15;18.45;;;3.40;99.90;;;;;;4965245;28;20417;-90
2021/03/01 02:36:03;;;;;;;46.80;17.90;;;3.40;99.90;;;;;;4976473;28;20513;-90
2021/03/01 02:38:30;;;;;;;43.33;18.30;;;3.30;99.90;;;;;;4984975;28;20296;-88
2021/03/01 02:40:59;;;;;;;50.60;19.63;;;3.30;99.90;;;;;;4973246;28;20461;-89
2021/03/01 02:43:28;;;;;;;50.45;18.95;;;3.30;99.90;;;;;;4983186;28;20050;-88
2021/03/01 02:45:55;;;;;;;55.88;18.98;;;3.20;99.90;;;;;;4988906;28;20093;-88
2021/03/01 02:48:23;;;;;;;127.68;18.77;;;3.20;99.90;;;;;;4989522;28;20069;-88
2021/03/01 02:50:51;;;;;;;76.25;12.98;;;3.30;99.90;;;;;;4974457;28;20633;-88
2021/03/01 02:53:19;;;;;;;119.55;16.48;;;3.20;99.90;;;;;;4975349;28;20062;-88
2021/03/01 02:55:49;;;;;;;64.90;14.40;;;3.20;99.90;;;;;;4967330;28;20054;-88
2021/03/01 02:58:18;;;;;;;67.18;14.00;;;3.10;99.90;;;;;;4971239;28;20118;-88
2021/03/01 03:00:46;;;;;;;68.22;14.52;;;3.10;99.90;;;;;;4973601;28;20418;-88
2021/03/01 03:03:13;;;;;;;143.95;17.20;;;3.00;99.90;;;;;;4975997;28;20105;-88
2021/03/01 03:05:42;;;;;;;90.32;15.68;;;2.90;99.90;;;;;;4991040;28;20129;-90
2021/03/01 03:08:12;;;;;;;139.15;16.27;;;2.90;99.90;;;;;;4998724;28;20053;-90
2021/03/01 03:10:40;;;;;;;95.55;16.65;;;2.90;99.90;;;;;;4965928;28;20086;-91
2021/03/01 03:13:08;;;;;;;133.32;18.42;;;2.80;99.90;;;;;;4987173;28;20045;-91
2021/03/01 03:15:35;;;;;;;89.85;17.23;;;2.80;99.90;;;;;;5010069;28;20046;-90
2021/03/01 03:18:03;;;;;;;194.07;21.25;;;2.80;99.90;;;;;;4999800;28;20042;-90
2021/03/01 03:20:30;;;;;;;100.05;20.00;;;2.80;99.90;;;;;;4995777;28;20065;-90
2021/03/01 03:23:00;;;;;;;125.40;20.08;;;2.90;99.90;;;;;;4998822;28;20046;-90
2021/03/01 03:25:27;;;;;;;216.02;25.27;;;2.90;99.90;;;;;;5012256;28;20129;-90
2021/03/01 03:27:53;;;;;;;98.07;21.13;;;2.90;99.90;;;;;;5015083;28;20054;-90
2021/03/01 03:30:21;;;;;;;76.00;19.92;;;2.90;99.90;;;;;;4970260;28;20051;-90
2021/03/01 03:32:49;;;;;;;88.65;20.17;;;2.90;99.90;;;;;;4987061;28;20050;-90
2021/03/01 03:35:16;;;;;;;131.35;23.20;;;3.00;99.90;;;;;;5000440;28;20069;-90
2021/03/01 03:37:55;;;;;;;102.70;23.48;;;3.00;99.90;;;;;;4980820;28;20061;-89
2021/03/01 03:40:25;;;;;;;106.40;22.48;;;3.10;99.90;;;;;;5014454;28;20699;-90
2021/03/01 03:42:53;;;;;;;110.50;22.88;;;3.10;99.90;;;;;;5007321;28;20070;-90
2021/03/01 03:45:20;;;;;;;103.65;23.40;;;3.10;99.90;;;;;;4994139;28;20565;-89
2021/03/01 03:47:50;;;;;;;90.07;21.83;;;3.10;99.90;;;;;;4982502;28;20552;-90
2021/03/01 03:50:18;;;;;;;111.35;23.35;;;3.20;99.90;;;;;;4992967;28;20066;-90
2021/03/01 03:52:46;;;;;;;104.07;24.40;;;3.20;99.90;;;;;;4978058;28;20747;-90
2021/03/01 03:55:19;;;;;;;95.38;23.00;;;3.30;99.90;;;;;;5008592;28;20066;-89
2021/03/01 03:57:58;;;;;;;107.97;23.75;;;3.30;99.90;;;;;;4983167;28;20108;-89
2021/03/01 04:00:27;;;;;;;112.10;24.38;;;3.30;99.90;;;;;;5002835;28;20137;-89
2021/03/01 04:02:57;;;;;;;99.95;24.42;;;3.40;99.90;;;;;;4988239;28;20494;-89
2021/03/01 04:05:25;;;;;;;103.00;24.30;;;3.40;99.90;;;;;;5011014;28;20064;-89
2021/03/01 04:07:53;;;;;;;53.90;16.60;;;3.50;99.90;;;;;;4983138;28;20089;-90
2021/03/01 04:10:21;;;;;;;106.22;24.08;;;3.50;99.90;;;;;;4985417;28;20123;-89
2021/03/01 04:12:51;;;;;;;101.78;26.15;;;3.50;99.90;;;;;;4979312;28;20062;-89
2021/03/01 04:15:18;;;;;;;90.00;23.30;;;3.60;99.90;;;;;;4987362;28;20055;-89
2021/03/01 04:17:47;;;;;;;85.53;23.88;;;3.70;99.90;;;;;;4986489;28;20518;-89
2021/03/01 04:20:18;;;;;;;81.43;24.20;;;3.70;99.90;;;;;;4987207;28;20053;-89
2021/03/01 04:22:45;;;;;;;69.93;22.20;;;3.80;99.90;;;;;;4976887;28;20575;-89
2021/03/01 04:25:14;;;;;;;77.05;24.58;;;3.80;99.90;;;;;;4982555;28;20055;-89
2021/03/01 04:27:44;;;;;;;69.13;20.83;;;3.80;99.90;;;;;;4982274;28;20054;-89
2021/03/01 04:30:12;;;;;;;73.05;21.30;;;3.90;99.90;;;;;;4998289;28;20585;-89
2021/03/01 04:32:43;;;;;;;75.18;21.42;;;3.90;99.90;;;;;;4984177;28;20137;-89
2021/03/01 04:35:13;;;;;;;65.80;20.05;;;4.00;99.90;;;;;;4995890;28;20117;-90
2021/03/01 04:37:40;;;;;;;65.35;20.45;;;4.00;99.90;;;;;;4996674;28;20622;-89
2021/03/01 04:40:30;;;;;;;53.35;16.48;;;4.10;99.90;;;;;;4989040;28;20049;-88
2021/03/01 04:43:13;;;;;;;48.95;16.02;;;4.10;99.90;;;;;;4991083;28;20095;-90
2021/03/01 04:45:42;;;;;;;41.65;16.40;;;4.10;99.90;;;;;;5001466;28;20387;-90
2021/03/01 04:48:11;;;;;;;51.65;17.27;;;4.10;99.90;;;;;;4988106;28;20483;-90
2021/03/01 04:50:39;;;;;;;48.42;15.43;;;4.20;99.90;;;;;;4974388;28;20054;-90
2021/03/01 04:53:05;;;;;;;46.80;15.18;;;4.20;99.90;;;;;;4983310;28;20096;-90
2021/03/01 04:55:33;;;;;;;39.35;14.13;;;4.20;99.90;;;;;;4969767;28;20431;-89
2021/03/01 04:58:00;;;;;;;44.55;15.90;;;4.20;99.90;;;;;;4992670;28;20053;-89
2021/03/01 05:00:27;;;;;;;46.08;13.23;;;4.30;99.90;;;;;;4994966;28;20062;-89
2021/03/01 05:02:55;;;;;;;31.77;12.18;;;4.30;99.90;;;;;;4978903;28;20061;-89
2021/03/01 05:05:21;;;;;;;38.28;13.52;;;4.30;99.90;;;;;;4995193;28;20051;-89
2021/03/01 05:07:48;;;;;;;35.17;12.32;;;4.30;99.90;;;;;;4990577;28;20112;-89
2021/03/01 05:10:15;;;;;;;35.90;12.13;;;4.30;99.90;;;;;;4976983;28;20134;-89
2021/03/01 05:12:42;;;;;;;36.13;11.73;;;4.30;99.90;;;;;;4979811;28;20104;-89
2021/03/01 05:15:09;;;;;;;39.03;11.18;;;4.40;99.90;;;;;;4982599;28;20120;-89
2021/03/01 05:17:38;;;;;;;34.38;11.60;;;4.40;99.90;;;;;;4997169;28;20065;-90
2021/03/01 05:20:06;;;;;;;31.55;11.55;;;4.40;99.90;;;;;;4996960;28;20175;-90
2021/03/01 05:22:32;;;;;;;25.85;9.88;;;4.40;99.90;;;;;;4980841;28;20200;-88
2021/03/01 05:24:58;;;;;;;33.47;10.45;;;4.40;99.90;;;;;;4994616;28;20101;-91
2021/03/01 05:27:25;;;;;;;28.65;9.88;;;4.40;99.90;;;;;;4978310;28;20103;-91
2021/03/01 05:29:51;;;;;;;31.67;11.05;;;4.40;99.90;;;;;;4998594;28;20159;-91
2021/03/01 05:32:17;;;;;;;34.58;11.80;;;4.40;99.90;;;;;;4995524;28;20056;-92
2021/03/01 05:34:44;;;;;;;35.47;10.43;;;4.40;99.90;;;;;;4979714;28;20512;-91
2021/03/01 05:37:13;;;;;;;27.50;10.60;;;4.40;99.90;;;;;;4979467;28;20104;-90
2021/03/01 05:39:40;;;;;;;36.47;11.05;;;4.40;99.90;;;;;;4991041;28;20050;-90
2021/03/01 05:42:09;;;;;;;30.50;11.38;;;4.40;99.90;;;;;;4969731;28;20050;-93
2021/03/01 05:44:40;;;;;;;33.40;10.68;;;4.40;99.90;;;;;;4987838;28;20100;-93
2021/03/01 05:47:09;;;;;;;32.30;10.90;;;4.40;99.90;;;;;;4967210;28;20065;-90
2021/03/01 05:49:39;;;;;;;26.67;10.40;;;4.40;99.90;;;;;;4990372;28;20061;-89
2021/03/01 05:52:07;;;;;;;31.42;10.70;;;4.40;99.90;;;;;;4993517;28;20060;-90
2021/03/01 05:54:35;;;;;;;33.85;10.07;;;4.40;99.90;;;;;;4977306;28;20061;-90
2021/03/01 05:57:05;;;;;;;33.60;11.95;;;4.30;99.90;;;;;;4981899;28;20074;-90
2021/03/01 05:59:33;;;;;;;37.15;12.82;;;4.30;99.90;;;;;;4990137;28;20070;-90
2021/03/01 06:02:00;;;;;;;28.08;10.27;;;4.30;99.90;;;;;;4987545;28;20101;-90
2021/03/01 06:04:27;;;;;;;32.20;10.70;;;4.30;99.90;;;;;;4991017;28;20058;-88
2021/03/01 06:06:54;;;;;;;26.40;10.52;;;4.40;99.90;;;;;;4975786;28;20054;-91
2021/03/01 06:09:20;;;;;;;21.42;8.48;;;4.40;99.90;;;;;;4996392;28;20136;-91
2021/03/01 06:11:48;;;;;;;24.30;9.27;;;4.40;99.90;;;;;;4995201;28;20496;-90
2021/03/01 06:14:15;;;;;;;34.00;10.75;;;4.40;99.90;;;;;;4976758;28;20050;-92
2021/03/01 06:17:15;;;;;;;32.05;9.32;;;4.40;99.90;;;;;;4967359;28;20050;-92
2021/03/01 06:19:51;;;;;;;28.38;8.73;;;4.30;99.90;;;;;;4973567;28;20077;-91
2021/03/01 06:22:47;;;;;;;29.30;9.88;;;4.30;99.90;;;;;;4968374;28;20058;-91
2021/03/01 06:25:37;;;;;;;37.67;10.27;;;4.30;99.90;;;;;;4969806;28;20062;-90
2021/03/01 06:28:07;;;;;;;26.15;9.73;;;4.30;99.90;;;;;;4980952;28;20053;-91
2021/03/01 06:30:37;;;;;;;27.23;10.02;;;4.30;99.90;;;;;;4975522;28;20058;-90
2021/03/01 06:33:07;;;;;;;28.25;10.05;;;4.30;99.90;;;;;;4976920;28;20049;-91
2021/03/01 06:35:34;;;;;;;36.72;11.82;;;4.40;99.90;;;;;;4994141;28;20073;-90
2021/03/01 06:38:26;;;;;;;57.90;14.45;;;4.40;99.90;;;;;;4980737;28;20054;-88
2021/03/01 06:41:06;;;;;;;44.10;13.18;;;4.40;99.90;;;;;;5008593;28;20051;-88
2021/03/01 06:43:32;;;;;;;41.60;13.85;;;4.40;99.90;;;;;;4969704;28;20200;-87
2021/03/01 06:46:10;;;;;;;31.50;11.95;;;4.40;99.90;;;;;;4979171;28;20126;-89
2021/03/01 06:48:41;;;;;;;30.58;10.43;;;4.40;99.90;;;;;;4971165;28;20233;-88
2021/03/01 06:51:08;;;;;;;38.33;10.73;;;4.40;99.90;;;;;;4971050;28;20046;-87
2021/03/01 06:53:36;;;;;;;27.42;11.02;;;4.40;99.90;;;;;;4971046;28;20478;-86
2021/03/01 06:56:11;;;;;;;39.78;11.10;;;4.40;99.90;;;;;;4994549;28;20379;-87
2021/03/01 06:58:41;;;;;;;28.38;9.25;;;4.30;99.90;;;;;;5010999;28;20058;-86
2021/03/01 07:01:18;;;;;;;26.73;9.38;;;4.30;99.90;;;;;;4983624;28;20514;-87
2021/03/01 07:03:50;;;;;;;21.30;6.57;;;4.30;99.90;;;;;;4987909;28;20051;-87
2021/03/01 07:06:17;;;;;;;25.13;8.95;;;4.30;99.90;;;;;;4974919;28;20148;-87
2021/03/01 07:08:52;;;;;;;29.02;8.38;;;4.30;99.90;;;;;;4985977;28;20587;-87
2021/03/01 07:11:22;;;;;;;28.42;8.63;;;4.20;99.90;;;;;;4994999;28;20046;-87
2021/03/01 07:14:07;;;;;;;33.40;11.07;;;4.30;99.90;;;;;;4991454;28;20058;-86
2021/03/01 07:16:40;;;;;;;30.92;9.02;;;4.30;99.90;;;;;;4975583;28;20074;-86
2021/03/01 07:19:16;;;;;;;22.13;8.55;;;4.30;99.90;;;;;;4992323;28;20058;-87
2021/03/01 07:21:45;;;;;;;25.85;8.93;;;4.30;99.90;;;;;;4996553;28;20050;-87
2021/03/01 07:24:15;;;;;;;28.55;9.25;;;4.30;99.90;;;;;;4990622;28;20050;-87
2021/03/01 07:26:43;;;;;;;24.75;9.05;;;4.30;99.90;;;;;;4993007;28;20057;-88
2021/03/01 07:29:11;;;;;;;28.58;9.15;;;4.30;99.90;;;;;;4969687;28;20061;-88
2021/03/01 07:31:41;;;;;;;31.85;9.93;;;4.30;99.90;;;;;;4975528;28;20066;-87
2021/03/01 07:34:09;;;;;;;35.20;9.73;;;4.40;99.90;;;;;;4992327;28;20073;-89
2021/03/01 07:36:36;;;;;;;23.50;10.15;;;4.40;99.90;;;;;;4976915;28;21193;-87
2021/03/01 07:39:08;;;;;;;30.80;7.72;;;4.40;99.90;;;;;;5007541;28;20109;-88
2021/03/01 07:41:37;;;;;;;23.38;9.38;;;4.40;99.90;;;;;;4989863;28;20580;-91
2021/03/01 07:44:08;;;;;;;27.42;9.23;;;4.50;99.90;;;;;;4975267;28;20060;-88
2021/03/01 07:46:39;;;;;;;25.85;9.38;;;4.50;99.90;;;;;;4979066;28;20070;-88
2021/03/01 07:49:11;;;;;;;30.52;9.73;;;4.60;99.90;;;;;;4983661;28;20146;-88
2021/03/01 07:51:46;;;;;;;28.42;9.82;;;4.60;99.90;;;;;;4978807;28;20447;-91
2021/03/01 07:54:15;;;;;;;29.75;10.75;;;4.70;99.90;;;;;;4997503;28;20085;-87
2021/03/01 07:56:43;;;;;;;27.73;9.05;;;4.70;99.90;;;;;;4989728;28;20050;-91
2021/03/01 07:59:11;;;;;;;25.08;8.10;;;4.80;99.90;;;;;;4992273;28;20056;-88
2021/03/01 08:01:38;;;;;;;27.95;9.27;;;4.80;99.90;;;;;;4969869;28;20050;-88
2021/03/01 08:04:26;;;;;;;25.48;8.30;;;4.90;99.90;;;;;;5001256;28;20054;-87
2021/03/01 08:06:57;;;;;;;25.73;7.65;;;4.90;99.90;;;;;;4995108;28;20053;-88
2021/03/01 08:09:43;;;;;;;20.80;7.40;;;5.00;99.90;;;;;;5009368;28;20070;-86
2021/03/01 08:12:32;;;;;;;18.05;6.95;;;5.00;99.90;;;;;;5012491;28;20077;-90
2021/03/01 08:15:00;;;;;;;20.63;7.38;;;5.00;99.90;;;;;;5007452;28;20060;-87
2021/03/01 08:17:28;;;;;;;21.48;8.02;;;5.00;99.90;;;;;;5008349;28;20478;-89
2021/03/01 08:20:12;;;;;;;19.52;7.05;;;5.10;99.90;;;;;;4980707;28;20062;-88
2021/03/01 08:23:01;;;;;;;24.83;7.85;;;5.10;99.90;;;;;;5010582;28;20144;-89
2021/03/01 08:25:48;;;;;;;21.77;7.57;;;5.10;99.90;;;;;;4963262;28;20518;-88
2021/03/01 08:28:24;;;;;;;26.27;7.55;;;5.20;99.90;;;;;;4978109;28;20054;-88
2021/03/01 08:31:16;;;;;;;19.20;8.13;;;5.20;99.90;;;;;;4954655;28;20058;-90
2021/03/01 08:34:08;;;;;;;24.02;7.93;;;5.30;99.90;;;;;;4936270;28;20064;-89
2021/03/01 08:36:44;;;;;;;19.00;8.02;;;5.30;99.90;;;;;;4966204;28;20064;-88
2021/03/01 08:39:49;;;;;;;19.27;6.57;;;5.40;99.90;;;;;;4916234;28;20086;-89
2021/03/01 08:42:43;;;;;;;20.58;7.75;;;5.40;99.90;;;;;;4918417;28;20428;-89
2021/03/01 08:45:22;;;;;;;23.98;8.57;;;5.40;99.90;;;;;;4961135;28;20051;-90
2021/03/01 08:47:52;;;;;;;31.13;9.10;;;5.50;99.90;;;;;;4961716;28;20046;-87
2021/03/01 08:50:39;;;;;;;21.67;7.57;;;5.60;99.90;;;;;;4932273;28;20050;-89
2021/03/01 08:53:11;;;;;;;17.95;7.40;;;5.60;99.90;;;;;;4972277;28;20594;-88
2021/03/01 08:55:39;;;;;;;21.27;8.15;;;5.70;99.90;;;;;;4980395;28;20104;-89
2021/03/01 08:58:09;;;;;;;24.23;8.77;;;5.70;99.90;;;;;;4998003;28;20070;-87
2021/03/01 09:00:38;;;;;;;24.35;7.97;;;5.80;99.90;;;;;;4973490;28;20484;-87
2021/03/01 09:03:09;;;;;;;28.25;9.18;;;5.90;99.90;;;;;;4993097;28;20057;-88
2021/03/01 09:05:36;;;;;;;20.35;8.57;;;6.00;99.90;;;;;;4987621;28;20055;-88
2021/03/01 09:08:04;;;;;;;22.70;8.00;;;6.00;99.90;;;;;;4975838;28;20065;-88
2021/03/01 09:10:34;;;;;;;26.65;9.70;;;6.10;99.90;;;;;;4988761;28;20155;-89
2021/03/01 09:13:05;;;;;;;22.33;8.25;;;6.30;99.90;;;;;;4974380;28;20050;-89
2021/03/01 09:15:32;;;;;;;27.15;9.68;;;6.40;99.90;;;;;;4988022;28;20058;-90
2021/03/01 09:17:58;;;;;;;27.25;10.38;;;6.40;99.90;;;;;;4990536;28;20057;-89
2021/03/01 09:20:25;;;;;;;26.30;10.00;;;6.50;99.90;;;;;;4996426;28;20527;-90
2021/03/01 09:22:52;;;;;;;33.00;11.57;;;6.50;99.90;;;;;;4992688;28;20050;-89
2021/03/01 09:25:32;;;;;;;35.17;12.48;;;6.50;99.90;;;;;;4995506;28;20054;-88
2021/03/01 09:27:58;;;;;;;30.33;10.43;;;6.60;99.90;;;;;;5008242;28;20050;-88
2021/03/01 09:30:26;;;;;;;28.58;11.00;;;6.60;99.90;;;;;;4998758;28;20409;-88
2021/03/01 09:32:57;;;;;;;27.75;10.68;;;6.60;99.90;;;;;;4980187;28;20054;-89
2021/03/01 09:35:25;;;;;;;25.70;11.20;;;6.70;99.90;;;;;;4988003;28;20416;-89
2021/03/01 09:38:04;;;;;;;30.25;11.43;;;6.90;99.90;;;;;;4979715;28;20058;-89
2021/03/01 09:41:08;;;;;;;29.67;10.55;;;7.00;99.90;;;;;;4974064;28;20082;-89
2021/03/01 09:43:48;;;;;;;27.73;10.47;;;7.10;99.90;;;;;;4934229;28;20046;-90
2021/03/01 09:46:50;;;;;;;22.38;8.98;;;7.00;99.90;;;;;;4928737;28;20057;-90
2021/03/01 09:49:25;;;;;;;27.30;10.32;;;6.90;99.90;;;;;;4949072;28;20529;-89
2021/03/01 09:52:14;;;;;;;21.35;9.23;;;6.90;99.90;;;;;;4942880;28;20050;-89
2021/03/01 09:54:42;;;;;;;20.40;8.88;;;7.10;99.90;;;;;;4974412;28;20430;-88
2021/03/01 09:57:43;;;;;;;17.95;7.25;;;7.30;99.90;;;;;;4941101;28;20069;-92
2021/03/01 10:00:46;;;;;;;19.05;8.23;;;7.50;99.90;;;;;;4968511;28;20516;-89
2021/03/01 10:03:38;;;;;;;17.60;7.10;;;7.60;99.90;;;;;;4929298;28;20054;-91
2021/03/01 10:06:17;;;;;;;20.55;8.52;;;7.60;99.90;;;;;;4888954;28;20478;-91
2021/03/01 10:09:14;;;;;;;33.78;9.18;;;7.50;99.90;;;;;;4877807;28;20108;-91
2021/03/01 10:12:01;;;;;;;21.10;8.25;;;7.40;99.90;;;;;;4893547;28;20066;-91
2021/03/01 10:14:32;;;;;;;25.20;9.18;;;7.40;99.90;;;;;;4871939;28;20062;-90
2021/03/01 10:17:23;;;;;;;21.50;8.55;;;7.30;99.90;;;;;;4849244;28;20428;-90
2021/03/01 10:19:53;;;;;;;20.50;8.45;;;7.10;99.90;;;;;;4913904;28;20058;-90
2021/03/01 10:22:30;;;;;;;25.33;9.35;;;7.10;99.90;;;;;;4903267;28;20072;-88
2021/03/01 10:24:58;;;;;;;21.45;9.07;;;7.10;99.90;;;;;;4975264;28;20057;-88
2021/03/01 10:27:36;;;;;;;19.15;8.35;;;7.30;99.90;;;;;;4975574;28;20058;-88
2021/03/01 10:30:05;;;;;;;19.23;7.32;;;7.50;99.90;;;;;;5005892;28;20629;-88
2021/03/01 10:32:31;;;;;;;18.08;7.00;;;7.70;99.90;;;;;;4985025;28;20089;-87
2021/03/01 10:34:58;;;;;;;19.45;7.22;;;8.00;99.90;;;;;;4973978;28;21411;-87
2021/03/01 10:37:26;;;;;;;22.55;8.98;;;8.30;99.90;;;;;;4980252;28;20141;-87
2021/03/01 10:39:53;;;;;;;24.00;8.15;;;8.30;99.90;;;;;;4988145;28;20567;-87
2021/03/01 10:42:21;;;;;;;22.08;8.30;;;8.40;99.90;;;;;;4993765;28;20073;-88
2021/03/01 10:44:54;;;;;;;16.27;5.82;;;8.60;99.90;;;;;;4979664;28;20052;-88
2021/03/01 10:47:28;;;;;;;17.17;6.35;;;8.70;99.90;;;;;;4980874;28;20554;-87
2021/03/01 10:50:01;;;;;;;17.50;7.82;;;8.80;99.90;;;;;;4986075;28;20054;-86
2021/03/01 10:52:28;;;;;;;16.90;6.85;;;8.90;99.90;;;;;;4972449;28;20099;-87
2021/03/01 10:54:56;;;;;;;18.40;7.45;;;9.10;99.90;;;;;;4980417;28;20525;-87
2021/03/01 10:57:23;;;;;;;12.20;5.70;;;9.10;99.90;;;;;;4975285;28;20152;-87
2021/03/01 10:59:52;;;;;;;15.90;7.03;;;9.20;99.90;;;;;;4990506;28;20138;-87
2021/03/01 11:02:18;;;;;;;20.08;7.07;;;9.30;99.90;;;;;;4992337;28;20055;-86
2021/03/01 11:04:46;;;;;;;14.48;6.20;;;9.40;99.90;;;;;;4990212;28;20500;-87
2021/03/01 11:07:13;;;;;;;20.05;7.70;;;9.50;99.90;;;;;;4977038;28;20115;-86
2021/03/01 11:09:39;;;;;;;17.80;7.85;;;9.50;99.90;;;;;;4974314;28;20133;-88
2021/03/01 11:12:06;;;;;;;16.02;6.07;;;9.50;99.90;;;;;;4992983;28;20101;-88
2021/03/01 11:14:32;;;;;;;17.70;7.50;;;9.60;99.90;;;;;;4977929;28;20109;-88
2021/03/01 11:17:06;;;;;;;18.77;7.95;;;9.70;99.90;;;;;;4982215;28;20117;-87
2021/03/01 11:19:33;;;;;;;17.88;8.45;;;9.80;99.90;;;;;;4995158;28;20109;-87
2021/03/01 11:21:59;;;;;;;15.07;6.35;;;9.90;99.90;;;;;;4987719;28;20136;-87
2021/03/01 11:24:25;;;;;;;17.60;7.07;;;10.00;99.90;;;;;;4989315;28;20565;-87
2021/03/01 11:26:52;;;;;;;14.38;6.15;;;10.10;99.90;;;;;;4982011;28;20055;-87
2021/03/01 11:29:20;;;;;;;15.95;6.60;;;10.10;99.90;;;;;;5019768;28;20070;-87
2021/03/01 11:31:47;;;;;;;13.02;5.97;;;10.20;99.90;;;;;;4996764;28;20053;-87
2021/03/01 11:34:17;;;;;;;16.10;6.22;;;10.30;99.90;;;;;;4998818;28;20051;-86
2021/03/01 11:36:44;;;;;;;16.92;6.78;;;10.50;99.90;;;;;;4992720;28;20085;-87
2021/03/01 11:39:14;;;;;;;18.48;7.82;;;10.60;99.90;;;;;;4988314;28;20135;-87
2021/03/01 11:41:40;;;;;;;18.58;7.68;;;10.60;99.90;;;;;;4992750;28;20058;-88
2021/03/01 11:44:10;;;;;;;13.05;5.95;;;10.60;99.90;;;;;;4991174;28;20034;-87
2021/03/01 11:46:37;;;;;;;12.70;5.88;;;10.70;99.90;;;;;;5015431;28;20085;-88
2021/03/01 11:49:08;;;;;;;17.80;6.38;;;10.70;99.90;;;;;;5007507;28;20047;-87
2021/03/01 11:51:34;;;;;;;15.77;6.57;;;10.80;99.90;;;;;;4996183;28;20105;-87
2021/03/01 11:54:01;;;;;;;14.88;7.53;;;10.90;99.90;;;;;;5007874;28;20049;-87
2021/03/01 11:56:27;;;;;;;15.82;6.80;;;11.00;99.90;;;;;;4989234;28;20046;-87
2021/03/01 11:58:54;;;;;;;12.73;5.93;;;11.10;99.90;;;;;;4987699;28;20105;-87
2021/03/01 12:01:20;;;;;;;17.85;9.40;;;11.20;99.90;;;;;;4984489;28;20108;-87
2021/03/01 12:03:47;;;;;;;16.08;6.60;;;11.20;99.90;;;;;;4989504;28;20105;-87
2021/03/01 12:06:13;;;;;;;17.30;6.28;;;11.20;99.90;;;;;;4987398;28;20082;-87
2021/03/01 12:08:40;;;;;;;13.55;6.40;;;11.30;99.90;;;;;;4978192;28;20429;-87
2021/03/01 12:11:06;;;;;;;17.23;6.35;;;11.40;99.90;;;;;;4977917;28;20055;-87
2021/03/01 12:13:33;;;;;;;13.52;4.82;;;11.40;99.90;;;;;;4982524;28;20677;-87
2021/03/01 12:16:00;;;;;;;14.77;6.05;;;11.50;99.90;;;;;;4959358;28;20068;-87
2021/03/01 12:18:27;;;;;;;13.40;5.13;;;11.60;99.90;;;;;;5005746;28;20073;-87
2021/03/01 12:20:53;;;;;;;14.68;5.85;;;11.70;99.90;;;;;;4985968;28;20058;-87
2021/03/01 12:23:19;;;;;;;14.55;5.45;;;11.80;99.90;;;;;;4987974;28;20049;-87
2021/03/01 12:25:46;;;;;;;17.00;6.40;;;11.90;99.90;;;;;;4980787;28;20098;-87
2021/03/01 12:28:12;;;;;;;17.42;6.50;;;12.00;99.90;;;;;;4978840;28;20082;-87
2021/03/01 12:30:39;;;;;;;16.30;6.30;;;12.20;99.90;;;;;;4978948;28;20066;-87
2021/03/01 12:33:06;;;;;;;15.55;7.50;;;12.30;99.90;;;;;;4992934;28;20128;-87
2021/03/01 12:35:36;;;;;;;13.68;6.78;;;12.40;99.90;;;;;;4980642;28;20055;-87
2021/03/01 12:38:03;;;;;;;19.38;7.00;;;12.60;99.90;;;;;;4980408;28;20568;-87
2021/03/01 12:40:30;;;;;;;16.23;6.72;;;12.70;99.90;;;;;;4981717;28;20113;-87
2021/03/01 12:43:02;;;;;;;18.02;7.43;;;12.70;99.90;;;;;;4977966;28;20089;-87
2021/03/01 12:45:30;;;;;;;22.80;8.73;;;12.70;99.40;;;;;;4977723;28;20063;-88
2021/03/01 12:47:57;;;;;;;16.00;8.48;;;12.80;99.90;;;;;;4988365;28;20062;-89
2021/03/01 12:50:24;;;;;;;18.75;8.25;;;13.00;99.90;;;;;;4995990;28;20145;-88
2021/03/01 12:52:50;;;;;;;19.98;7.13;;;13.30;98.70;;;;;;4981996;28;20065;-88
2021/03/01 12:55:17;;;;;;;16.55;7.93;;;13.60;97.70;;;;;;4984365;28;20109;-88
2021/03/01 12:57:43;;;;;;;15.75;6.43;;;13.90;95.30;;;;;;4980508;28;20449;-87